Chantaco — FMLM — position and weather

sailwx.info

Track history (hours):
 
Tides and Currents Weather Stations Pressure Air Temp Water Temp Dewpoint Dewpoint Depression Visibility Wind Speed Wind Dir Waves Ship Positions

Chantaco

Last reported at 2016-Sep-26 08:31 UTC. Time now 2016-Sep-26 08:50 UTC.
Position N 53°38' W 000°10'.

Length 143 m; draft 6.5 m.

Type: Tanker. MMSI: 228330700.

Date/timePositionNaut miles runAvg speedWind from/ knotsBaromVisibWave heightAir tempDewpointWater temp
2016-Sep-26 08:31N 53°38' W 000°10'23 3.8
2016-Sep-26 02:29N 53°36' E 000°29'0 0.1
2016-Sep-26 01:29N 53°36' E 000°29'5 5.4
2016-Sep-26 00:33N 53°31' E 000°31'3812.8
2016-Sep-25 21:33N 53°01' E 001°09'5311.8
2016-Sep-25 17:05N 52°15' E 001°52'712.5
2016-Sep-25 16:34N 52°08' E 001°51'1212.1
2016-Sep-25 15:33N 51°56' E 001°49'1312.9
2016-Sep-25 14:33N 51°43' E 001°50'2713.5
2016-Sep-25 12:34N 51°17' E 001°42'1313.3
2016-Sep-25 11:33N 51°04' E 001°37'1414.3
2016-Sep-25 10:33N 50°52' E 001°25'8113.4
2016-Sep-25 04:32N 50°14' W 000°27'6315.7
2016-Sep-25 00:33N 49°57' W 002°02'2914.3
2016-Sep-24 22:33N 49°49' W 002°44'1513.4
2016-Sep-24 21:24N 49°43' W 003°06'2613.4
2016-Sep-24 19:27N 49°30' W 003°41'2713.2
2016-Sep-24 17:25N 49°16' W 004°16'3813.2
2016-Sep-24 14:32N 48°57' W 005°06'5210.4
2016-Sep-24 09:33N 48°06' W 005°18'8313.9
2016-Sep-24 03:33N 47°18' W 003°37'1413.8
2016-Sep-24 02:33N 47°11' W 003°19'1414.4
2016-Sep-24 01:33N 47°06' W 002°60'1514.6
2016-Sep-24 00:33N 47°01' W 002°39'29 5.7
2016-Sep-23 19:32N 47°18' W 002°06'0 0.0
2016-Sep-23 17:32N 47°18' W 002°06'0 0.0
2016-Sep-23 16:32N 47°18' W 002°06'0 0.0
2016-Sep-23 04:26N 47°18' W 002°06'0 0.0
2016-Sep-23 03:26N 47°18' W 002°06'0 0.0
2016-Sep-23 01:05N 47°18' W 002°06'0 0.0
2016-Sep-23 00:29N 47°18' W 002°06'0 0.0
2016-Sep-22 23:32N 47°18' W 002°06'0 0.0
2016-Sep-22 20:32N 47°18' W 002°06'18 2.3
2016-Sep-22 12:32N 47°07' W 002°27'0 0.0
2016-Sep-22 04:30N 47°07' W 002°27'0 0.0
2016-Sep-22 03:26N 47°07' W 002°27'0 0.1
2016-Sep-22 00:33N 47°07' W 002°27'0 0.0
2016-Sep-21 23:33N 47°07' W 002°27'0 0.0
2016-Sep-21 22:33N 47°07' W 002°27'3110.5
2016-Sep-21 19:33N 46°36' W 002°40'11310.8
2016-Sep-21 09:06N 45°17' W 000°45'810.1
2016-Sep-21 08:19N 45°09' W 000°43'  
2016-Sep-18 01:29N 46°06' W 001°55'20 6.8
2016-Sep-17 22:33N 46°20' W 002°16'6 5.8
2016-Sep-17 21:33N 46°24' W 002°23'6 5.6
2016-Sep-17 20:27N 46°28' W 002°30'47 6.8
2016-Sep-17 13:33N 46°57' W 003°24'9 7.6
2016-Sep-17 12:21N 47°03' W 003°34'28 7.0
2016-Sep-17 08:25N 47°20' W 004°06'6 6.8
2016-Sep-17 07:33N 47°23' W 004°13'161 5.8
2016-Sep-16 03:33N 49°57' W 002°58'1010.3
2016-Sep-16 02:33N 49°60' W 002°43'  
Track history (hours):
 
Tides and Currents Weather Stations Pressure Air Temp Water Temp Dewpoint Dewpoint Depression Visibility Wind Speed Wind Dir Waves Ship Positions

Chantaco

Last reported at 2016-Sep-26 08:31 UTC. Time now 2016-Sep-26 08:50 UTC.
Position N 53°38' W 000°10'.

Length 143 m; draft 6.5 m.

Type: Tanker. MMSI: 228330700.

Date/timePositionNaut miles runAvg speedWind from/ knotsBaromVisibWave heightAir tempDewpointWater temp
2016-Sep-26 08:31N 53°38' W 000°10'23 3.8
2016-Sep-26 02:29N 53°36' E 000°29'0 0.1
2016-Sep-26 01:29N 53°36' E 000°29'5 5.4
2016-Sep-26 00:33N 53°31' E 000°31'3812.8
2016-Sep-25 21:33N 53°01' E 001°09'5311.8
2016-Sep-25 17:05N 52°15' E 001°52'712.5
2016-Sep-25 16:34N 52°08' E 001°51'1212.1
2016-Sep-25 15:33N 51°56' E 001°49'1312.9
2016-Sep-25 14:33N 51°43' E 001°50'2713.5
2016-Sep-25 12:34N 51°17' E 001°42'1313.3
2016-Sep-25 11:33N 51°04' E 001°37'1414.3
2016-Sep-25 10:33N 50°52' E 001°25'8113.4
2016-Sep-25 04:32N 50°14' W 000°27'6315.7
2016-Sep-25 00:33N 49°57' W 002°02'2914.3
2016-Sep-24 22:33N 49°49' W 002°44'1513.4
2016-Sep-24 21:24N 49°43' W 003°06'2613.4
2016-Sep-24 19:27N 49°30' W 003°41'2713.2
2016-Sep-24 17:25N 49°16' W 004°16'3813.2
2016-Sep-24 14:32N 48°57' W 005°06'5210.4
2016-Sep-24 09:33N 48°06' W 005°18'8313.9
2016-Sep-24 03:33N 47°18' W 003°37'1413.8
2016-Sep-24 02:33N 47°11' W 003°19'1414.4
2016-Sep-24 01:33N 47°06' W 002°60'1514.6
2016-Sep-24 00:33N 47°01' W 002°39'29 5.7
2016-Sep-23 19:32N 47°18' W 002°06'0 0.0
2016-Sep-23 17:32N 47°18' W 002°06'0 0.0
2016-Sep-23 16:32N 47°18' W 002°06'0 0.0
2016-Sep-23 04:26N 47°18' W 002°06'0 0.0
2016-Sep-23 03:26N 47°18' W 002°06'0 0.0
2016-Sep-23 01:05N 47°18' W 002°06'0 0.0
2016-Sep-23 00:29N 47°18' W 002°06'0 0.0
2016-Sep-22 23:32N 47°18' W 002°06'0 0.0
2016-Sep-22 20:32N 47°18' W 002°06'18 2.3
2016-Sep-22 12:32N 47°07' W 002°27'0 0.0
2016-Sep-22 04:30N 47°07' W 002°27'0 0.0
2016-Sep-22 03:26N 47°07' W 002°27'0 0.1
2016-Sep-22 00:33N 47°07' W 002°27'0 0.0
2016-Sep-21 23:33N 47°07' W 002°27'0 0.0
2016-Sep-21 22:33N 47°07' W 002°27'3110.5
2016-Sep-21 19:33N 46°36' W 002°40'11310.8
2016-Sep-21 09:06N 45°17' W 000°45'810.1
2016-Sep-21 08:19N 45°09' W 000°43'  
2016-Sep-18 01:29N 46°06' W 001°55'20 6.8
2016-Sep-17 22:33N 46°20' W 002°16'6 5.8
2016-Sep-17 21:33N 46°24' W 002°23'6 5.6
2016-Sep-17 20:27N 46°28' W 002°30'47 6.8
2016-Sep-17 13:33N 46°57' W 003°24'9 7.6
2016-Sep-17 12:21N 47°03' W 003°34'28 7.0
2016-Sep-17 08:25N 47°20' W 004°06'6 6.8
2016-Sep-17 07:33N 47°23' W 004°13'161 5.8
2016-Sep-16 03:33N 49°57' W 002°58'1010.3
2016-Sep-16 02:33N 49°60' W 002°43'  

Dump ship's entire track history